sensor_id;sensor_type;location;lat;lon;timestamp;temperature;humidity
15133;DHT22;7667;51.232;17.110;2023-02-13T00:00:54;4.40;99.90
15133;DHT22;7667;51.232;17.110;2023-02-13T00:03:22;4.30;99.90
15133;DHT22;7667;51.232;17.110;2023-02-13T00:05:49;4.40;99.90
15133;DHT22;7667;51.232;17.110;2023-02-13T00:08:17;4.30;99.90
15133;DHT22;7667;51.232;17.110;2023-02-13T00:10:45;4.30;99.90
15133;DHT22;7667;51.232;17.110;2023-02-13T00:13:13;4.30;99.90
15133;DHT22;7667;51.232;17.110;2023-02-13T00:15:41;4.30;99.90
15133;DHT22;7667;51.232;17.110;2023-02-13T00:18:08;4.20;99.90
15133;DHT22;7667;51.232;17.110;2023-02-13T00:20:36;4.30;99.90
15133;DHT22;7667;51.232;17.110;2023-02-13T00:23:03;4.20;99.90
15133;DHT22;7667;51.232;17.110;2023-02-13T00:25:31;4.20;99.90
15133;DHT22;7667;51.232;17.110;2023-02-13T00:27:58;4.20;99.90
15133;DHT22;7667;51.232;17.110;2023-02-13T00:30:25;4.20;99.90
15133;DHT22;7667;51.232;17.110;2023-02-13T00:32:53;4.20;99.90
15133;DHT22;7667;51.232;17.110;2023-02-13T00:35:20;4.20;99.90
15133;DHT22;7667;51.232;17.110;2023-02-13T00:37:48;4.20;99.90
15133;DHT22;7667;51.232;17.110;2023-02-13T00:40:15;4.20;99.90
15133;DHT22;7667;51.232;17.110;2023-02-13T00:42:43;4.30;99.90
15133;DHT22;7667;51.232;17.110;2023-02-13T00:45:10;4.30;99.90
15133;DHT22;7667;51.232;17.110;2023-02-13T00:47:38;4.30;99.90
15133;DHT22;7667;51.232;17.110;2023-02-13T00:50:05;4.30;99.90
15133;DHT22;7667;51.232;17.110;2023-02-13T00:52:33;4.20;99.90
15133;DHT22;7667;51.232;17.110;2023-02-13T00:55:00;4.10;99.90
15133;DHT22;7667;51.232;17.110;2023-02-13T00:57:28;4.10;99.90
15133;DHT22;7667;51.232;17.110;2023-02-13T00:59:58;4.20;99.90
15133;DHT22;7667;51.232;17.110;2023-02-13T01:02:25;4.20;99.90
15133;DHT22;7667;51.232;17.110;2023-02-13T01:04:53;4.30;99.90
15133;DHT22;7667;51.232;17.110;2023-02-13T01:07:20;4.30;99.90
15133;DHT22;7667;51.232;17.110;2023-02-13T01:09:48;4.30;99.90
15133;DHT22;7667;51.232;17.110;2023-02-13T01:12:15;4.30;99.90
15133;DHT22;7667;51.232;17.110;2023-02-13T01:14:42;4.20;99.90
15133;DHT22;7667;51.232;17.110;2023-02-13T01:17:10;4.20;99.90
15133;DHT22;7667;51.232;17.110;2023-02-13T01:19:39;4.10;99.90
15133;DHT22;7667;51.232;17.110;2023-02-13T01:22:07;4.10;99.90
15133;DHT22;7667;51.232;17.110;2023-02-13T01:24:35;4.10;99.90
15133;DHT22;7667;51.232;17.110;2023-02-13T01:27:02;4.10;99.90
15133;DHT22;7667;51.232;17.110;2023-02-13T01:29:30;4.10;99.90
15133;DHT22;7667;51.232;17.110;2023-02-13T01:31:57;4.10;99.90
15133;DHT22;7667;51.232;17.110;2023-02-13T01:34:25;4.10;99.90
15133;DHT22;7667;51.232;17.110;2023-02-13T01:36:53;4.10;99.90
15133;DHT22;7667;51.232;17.110;2023-02-13T01:39:20;4.20;99.90
15133;DHT22;7667;51.232;17.110;2023-02-13T01:41:48;4.10;99.90
15133;DHT22;7667;51.232;17.110;2023-02-13T01:47:30;4.20;99.90
15133;DHT22;7667;51.232;17.110;2023-02-13T01:50:41;4.20;99.90
15133;DHT22;7667;51.232;17.110;2023-02-13T01:53:17;4.10;99.90
15133;DHT22;7667;51.232;17.110;2023-02-13T01:55:52;4.10;99.90
15133;DHT22;7667;51.232;17.110;2023-02-13T01:58:24;4.00;99.90
15133;DHT22;7667;51.232;17.110;2023-02-13T02:00:55;4.10;99.90
15133;DHT22;7667;51.232;17.110;2023-02-13T02:03:28;4.10;99.90
15133;DHT22;7667;51.232;17.110;2023-02-13T02:06:01;4.00;99.90
15133;DHT22;7667;51.232;17.110;2023-02-13T02:08:30;4.10;99.90
15133;DHT22;7667;51.232;17.110;2023-02-13T02:11:06;4.20;99.90
15133;DHT22;7667;51.232;17.110;2023-02-13T02:13:38;4.20;99.90
15133;DHT22;7667;51.232;17.110;2023-02-13T02:16:06;4.20;99.90
15133;DHT22;7667;51.232;17.110;2023-02-13T02:18:33;4.20;99.90
15133;DHT22;7667;51.232;17.110;2023-02-13T02:40:32;4.10;99.90
15133;DHT22;7667;51.232;17.110;2023-02-13T02:43:29;4.20;99.90
15133;DHT22;7667;51.232;17.110;2023-02-13T02:46:35;4.10;99.90
15133;DHT22;7667;51.232;17.110;2023-02-13T02:49:09;4.20;99.90
15133;DHT22;7667;51.232;17.110;2023-02-13T02:52:25;4.20;99.90
15133;DHT22;7667;51.232;17.110;2023-02-13T02:55:21;4.20;99.90
15133;DHT22;7667;51.232;17.110;2023-02-13T02:58:24;4.20;99.90
15133;DHT22;7667;51.232;17.110;2023-02-13T03:01:14;4.20;99.90
15133;DHT22;7667;51.232;17.110;2023-02-13T03:04:02;4.20;99.90
15133;DHT22;7667;51.232;17.110;2023-02-13T03:06:55;4.10;99.90
15133;DHT22;7667;51.232;17.110;2023-02-13T03:09:31;4.10;99.90
15133;DHT22;7667;51.232;17.110;2023-02-13T03:12:24;4.10;99.90
15133;DHT22;7667;51.232;17.110;2023-02-13T03:15:14;4.10;99.90
15133;DHT22;7667;51.232;17.110;2023-02-13T03:17:41;4.10;99.90
15133;DHT22;7667;51.232;17.110;2023-02-13T03:29:45;4.10;99.90
15133;DHT22;7667;51.232;17.110;2023-02-13T03:42:03;4.20;99.90
15133;DHT22;7667;51.232;17.110;2023-02-13T03:44:59;4.20;99.90
15133;DHT22;7667;51.232;17.110;2023-02-13T03:47:56;4.20;99.90
15133;DHT22;7667;51.232;17.110;2023-02-13T03:50:26;4.20;99.90
15133;DHT22;7667;51.232;17.110;2023-02-13T03:53:02;4.10;99.90
15133;DHT22;7667;51.232;17.110;2023-02-13T03:55:39;4.10;99.90
15133;DHT22;7667;51.232;17.110;2023-02-13T03:58:33;4.10;99.90
15133;DHT22;7667;51.232;17.110;2023-02-13T04:01:24;4.10;99.90
15133;DHT22;7667;51.232;17.110;2023-02-13T04:06:59;4.00;99.90
15133;DHT22;7667;51.232;17.110;2023-02-13T04:09:31;4.00;99.90
15133;DHT22;7667;51.232;17.110;2023-02-13T04:14:41;4.00;99.90
15133;DHT22;7667;51.232;17.110;2023-02-13T04:17:52;4.00;99.90
15133;DHT22;7667;51.232;17.110;2023-02-13T04:20:30;4.00;99.90
15133;DHT22;7667;51.232;17.110;2023-02-13T04:23:07;4.00;99.90
15133;DHT22;7667;51.232;17.110;2023-02-13T04:25:37;4.00;99.90
15133;DHT22;7667;51.232;17.110;2023-02-13T04:28:06;4.00;99.90
15133;DHT22;7667;51.232;17.110;2023-02-13T04:30:34;4.00;99.90
15133;DHT22;7667;51.232;17.110;2023-02-13T04:33:02;4.00;99.90
15133;DHT22;7667;51.232;17.110;2023-02-13T04:35:29;4.00;99.90
15133;DHT22;7667;51.232;17.110;2023-02-13T04:37:57;4.00;99.90
15133;DHT22;7667;51.232;17.110;2023-02-13T04:40:24;4.00;99.90
15133;DHT22;7667;51.232;17.110;2023-02-13T04:42:52;3.90;99.90
15133;DHT22;7667;51.232;17.110;2023-02-13T04:45:19;3.90;99.90
15133;DHT22;7667;51.232;17.110;2023-02-13T04:47:51;3.90;99.90
15133;DHT22;7667;51.232;17.110;2023-02-13T04:50:22;3.90;99.90
15133;DHT22;7667;51.232;17.110;2023-02-13T04:52:55;3.90;99.90
15133;DHT22;7667;51.232;17.110;2023-02-13T04:55:24;3.90;99.90
15133;DHT22;7667;51.232;17.110;2023-02-13T04:57:54;4.00;99.90
15133;DHT22;7667;51.232;17.110;2023-02-13T05:00:23;3.90;99.90
15133;DHT22;7667;51.232;17.110;2023-02-13T05:02:52;3.90;99.90
15133;DHT22;7667;51.232;17.110;2023-02-13T05:05:20;3.90;99.90
15133;DHT22;7667;51.232;17.110;2023-02-13T05:07:47;3.90;99.90
15133;DHT22;7667;51.232;17.110;2023-02-13T05:10:15;3.90;99.90
15133;DHT22;7667;51.232;17.110;2023-02-13T05:12:43;3.90;99.90
15133;DHT22;7667;51.232;17.110;2023-02-13T05:15:10;3.90;99.90
15133;DHT22;7667;51.232;17.110;2023-02-13T05:17:38;3.90;99.90
15133;DHT22;7667;51.232;17.110;2023-02-13T05:20:06;4.00;99.90
15133;DHT22;7667;51.232;17.110;2023-02-13T05:22:33;4.00;99.90
15133;DHT22;7667;51.232;17.110;2023-02-13T05:25:19;4.00;99.90
15133;DHT22;7667;51.232;17.110;2023-02-13T05:27:47;4.00;99.90
15133;DHT22;7667;51.232;17.110;2023-02-13T05:30:14;4.00;99.90
15133;DHT22;7667;51.232;17.110;2023-02-13T05:32:42;4.00;99.90
15133;DHT22;7667;51.232;17.110;2023-02-13T05:35:09;4.00;99.90
15133;DHT22;7667;51.232;17.110;2023-02-13T05:37:37;4.00;99.90
15133;DHT22;7667;51.232;17.110;2023-02-13T05:40:05;4.10;99.90
15133;DHT22;7667;51.232;17.110;2023-02-13T05:42:33;4.00;99.90
15133;DHT22;7667;51.232;17.110;2023-02-13T05:45:00;4.00;99.90
15133;DHT22;7667;51.232;17.110;2023-02-13T05:47:28;4.10;99.90
15133;DHT22;7667;51.232;17.110;2023-02-13T05:49:55;4.10;99.90
15133;DHT22;7667;51.232;17.110;2023-02-13T05:52:23;4.20;99.90
15133;DHT22;7667;51.232;17.110;2023-02-13T05:54:51;4.20;99.90
15133;DHT22;7667;51.232;17.110;2023-02-13T05:57:18;4.20;99.90
15133;DHT22;7667;51.232;17.110;2023-02-13T05:59:46;4.30;99.90
15133;DHT22;7667;51.232;17.110;2023-02-13T06:02:13;4.30;99.90
15133;DHT22;7667;51.232;17.110;2023-02-13T06:04:41;4.30;99.90
15133;DHT22;7667;51.232;17.110;2023-02-13T06:07:08;4.30;99.90
15133;DHT22;7667;51.232;17.110;2023-02-13T06:09:36;4.30;99.90
15133;DHT22;7667;51.232;17.110;2023-02-13T06:12:03;4.30;99.90
15133;DHT22;7667;51.232;17.110;2023-02-13T06:14:31;4.30;99.90
15133;DHT22;7667;51.232;17.110;2023-02-13T06:17:00;4.40;99.90
15133;DHT22;7667;51.232;17.110;2023-02-13T06:19:27;4.40;99.90
15133;DHT22;7667;51.232;17.110;2023-02-13T06:21:55;4.40;99.90
15133;DHT22;7667;51.232;17.110;2023-02-13T06:24:23;4.30;99.90
15133;DHT22;7667;51.232;17.110;2023-02-13T06:26:50;4.30;99.90
15133;DHT22;7667;51.232;17.110;2023-02-13T06:29:18;4.40;99.90
15133;DHT22;7667;51.232;17.110;2023-02-13T06:31:45;4.40;99.90
15133;DHT22;7667;51.232;17.110;2023-02-13T06:34:13;4.40;99.90
15133;DHT22;7667;51.232;17.110;2023-02-13T06:36:40;4.40;99.90
15133;DHT22;7667;51.232;17.110;2023-02-13T06:39:09;4.40;99.90
15133;DHT22;7667;51.232;17.110;2023-02-13T06:41:37;4.50;99.90
15133;DHT22;7667;51.232;17.110;2023-02-13T06:44:04;4.40;99.90
15133;DHT22;7667;51.232;17.110;2023-02-13T06:46:33;4.40;99.90
15133;DHT22;7667;51.232;17.110;2023-02-13T06:49:00;4.40;99.90
15133;DHT22;7667;51.232;17.110;2023-02-13T06:51:28;4.50;99.90
15133;DHT22;7667;51.232;17.110;2023-02-13T06:53:55;4.50;99.90
15133;DHT22;7667;51.232;17.110;2023-02-13T06:56:22;4.50;99.90
15133;DHT22;7667;51.232;17.110;2023-02-13T06:58:52;4.50;99.90
15133;DHT22;7667;51.232;17.110;2023-02-13T07:01:19;4.50;99.90
15133;DHT22;7667;51.232;17.110;2023-02-13T07:03:47;4.50;99.90
15133;DHT22;7667;51.232;17.110;2023-02-13T07:06:18;4.50;99.90
15133;DHT22;7667;51.232;17.110;2023-02-13T07:08:46;4.60;99.90
15133;DHT22;7667;51.232;17.110;2023-02-13T07:11:18;4.50;99.90
15133;DHT22;7667;51.232;17.110;2023-02-13T07:13:46;4.60;99.90
15133;DHT22;7667;51.232;17.110;2023-02-13T07:16:13;4.60;99.90
15133;DHT22;7667;51.232;17.110;2023-02-13T07:18:41;4.60;99.90
15133;DHT22;7667;51.232;17.110;2023-02-13T07:21:08;4.60;99.90
15133;DHT22;7667;51.232;17.110;2023-02-13T07:23:36;4.60;99.90
15133;DHT22;7667;51.232;17.110;2023-02-13T07:26:04;4.70;99.90
15133;DHT22;7667;51.232;17.110;2023-02-13T07:28:31;4.70;99.90
15133;DHT22;7667;51.232;17.110;2023-02-13T07:31:03;4.70;99.90
15133;DHT22;7667;51.232;17.110;2023-02-13T07:33:33;4.70;99.90
15133;DHT22;7667;51.232;17.110;2023-02-13T07:36:01;4.70;99.90
15133;DHT22;7667;51.232;17.110;2023-02-13T07:38:30;4.70;99.90
15133;DHT22;7667;51.232;17.110;2023-02-13T07:40:59;4.70;99.90
15133;DHT22;7667;51.232;17.110;2023-02-13T07:43:28;4.70;99.90
15133;DHT22;7667;51.232;17.110;2023-02-13T07:46:00;4.70;99.90
15133;DHT22;7667;51.232;17.110;2023-02-13T07:48:29;4.80;99.90
15133;DHT22;7667;51.232;17.110;2023-02-13T07:51:02;4.90;99.90
15133;DHT22;7667;51.232;17.110;2023-02-13T07:53:31;4.80;99.90
15133;DHT22;7667;51.232;17.110;2023-02-13T07:55:58;4.80;99.90
15133;DHT22;7667;51.232;17.110;2023-02-13T07:58:26;4.90;99.90
15133;DHT22;7667;51.232;17.110;2023-02-13T08:00:53;5.00;99.90
15133;DHT22;7667;51.232;17.110;2023-02-13T08:03:21;5.10;99.90
15133;DHT22;7667;51.232;17.110;2023-02-13T08:05:48;5.10;99.90
15133;DHT22;7667;51.232;17.110;2023-02-13T08:08:16;5.10;99.90
15133;DHT22;7667;51.232;17.110;2023-02-13T08:10:43;5.00;99.90
15133;DHT22;7667;51.232;17.110;2023-02-13T08:13:29;5.00;99.90
15133;DHT22;7667;51.232;17.110;2023-02-13T08:15:58;5.00;99.90
15133;DHT22;7667;51.232;17.110;2023-02-13T08:18:26;5.10;99.90
15133;DHT22;7667;51.232;17.110;2023-02-13T08:20:53;5.10;99.90
15133;DHT22;7667;51.232;17.110;2023-02-13T08:23:21;5.10;99.90
15133;DHT22;7667;51.232;17.110;2023-02-13T08:25:48;5.20;99.90
15133;DHT22;7667;51.232;17.110;2023-02-13T08:28:16;5.20;99.90
15133;DHT22;7667;51.232;17.110;2023-02-13T08:30:43;5.20;99.90
15133;DHT22;7667;51.232;17.110;2023-02-13T08:33:11;5.30;99.90
15133;DHT22;7667;51.232;17.110;2023-02-13T08:35:38;5.40;99.90
15133;DHT22;7667;51.232;17.110;2023-02-13T08:38:06;5.40;99.90
15133;DHT22;7667;51.232;17.110;2023-02-13T08:40:33;5.30;99.90
15133;DHT22;7667;51.232;17.110;2023-02-13T08:43:03;5.40;99.90
15133;DHT22;7667;51.232;17.110;2023-02-13T08:45:32;5.50;99.90
15133;DHT22;7667;51.232;17.110;2023-02-13T08:48:00;5.50;99.90
15133;DHT22;7667;51.232;17.110;2023-02-13T08:50:30;5.60;99.90
15133;DHT22;7667;51.232;17.110;2023-02-13T08:52:58;5.50;99.90
15133;DHT22;7667;51.232;17.110;2023-02-13T08:55:26;5.60;99.90
15133;DHT22;7667;51.232;17.110;2023-02-13T08:58:01;5.60;99.90
15133;DHT22;7667;51.232;17.110;2023-02-13T09:00:30;5.60;99.90
15133;DHT22;7667;51.232;17.110;2023-02-13T09:03:01;5.60;99.90
15133;DHT22;7667;51.232;17.110;2023-02-13T09:05:30;5.60;99.90
15133;DHT22;7667;51.232;17.110;2023-02-13T09:08:00;5.20;99.90
15133;DHT22;7667;51.232;17.110;2023-02-13T09:10:31;4.90;99.90
15133;DHT22;7667;51.232;17.110;2023-02-13T09:12:58;4.90;99.90
15133;DHT22;7667;51.232;17.110;2023-02-13T09:15:27;4.90;99.90
15133;DHT22;7667;51.232;17.110;2023-02-13T09:17:54;5.00;99.90
15133;DHT22;7667;51.232;17.110;2023-02-13T09:20:22;5.10;99.90
15133;DHT22;7667;51.232;17.110;2023-02-13T09:22:49;5.20;99.90
15133;DHT22;7667;51.232;17.110;2023-02-13T09:25:17;5.30;99.90
15133;DHT22;7667;51.232;17.110;2023-02-13T09:27:46;5.30;99.90
15133;DHT22;7667;51.232;17.110;2023-02-13T09:30:13;5.30;99.90
15133;DHT22;7667;51.232;17.110;2023-02-13T09:32:53;5.40;99.90
15133;DHT22;7667;51.232;17.110;2023-02-13T09:35:22;5.50;99.90
15133;DHT22;7667;51.232;17.110;2023-02-13T09:37:50;5.50;99.90
15133;DHT22;7667;51.232;17.110;2023-02-13T09:40:27;5.50;99.90
15133;DHT22;7667;51.232;17.110;2023-02-13T09:43:52;5.60;99.90
15133;DHT22;7667;51.232;17.110;2023-02-13T09:46:06;5.70;99.90
15133;DHT22;7667;51.232;17.110;2023-02-13T09:48:42;5.80;99.90
15133;DHT22;7667;51.232;17.110;2023-02-13T09:51:22;6.00;99.90
15133;DHT22;7667;51.232;17.110;2023-02-13T09:53:58;6.00;99.90
15133;DHT22;7667;51.232;17.110;2023-02-13T10:05:29;6.00;99.90
15133;DHT22;7667;51.232;17.110;2023-02-13T10:08:38;6.20;99.90
15133;DHT22;7667;51.232;17.110;2023-02-13T10:14:29;6.50;99.90
15133;DHT22;7667;51.232;17.110;2023-02-13T10:20:16;6.30;99.90
15133;DHT22;7667;51.232;17.110;2023-02-13T10:28:54;6.90;99.90
15133;DHT22;7667;51.232;17.110;2023-02-13T10:31:43;6.80;99.90
15133;DHT22;7667;51.232;17.110;2023-02-13T10:34:16;6.60;99.90
15133;DHT22;7667;51.232;17.110;2023-02-13T10:36:47;6.60;99.90
15133;DHT22;7667;51.232;17.110;2023-02-13T10:39:24;6.50;99.90
15133;DHT22;7667;51.232;17.110;2023-02-13T10:42:20;6.40;99.90
15133;DHT22;7667;51.232;17.110;2023-02-13T10:57:25;6.70;99.90
15133;DHT22;7667;51.232;17.110;2023-02-13T11:02:44;6.70;99.90
15133;DHT22;7667;51.232;17.110;2023-02-13T11:05:16;6.70;99.90
15133;DHT22;7667;51.232;17.110;2023-02-13T11:07:48;6.60;99.90
15133;DHT22;7667;51.232;17.110;2023-02-13T11:10:22;6.60;99.90
15133;DHT22;7667;51.232;17.110;2023-02-13T11:12:52;6.50;99.90
15133;DHT22;7667;51.232;17.110;2023-02-13T11:15:26;6.40;99.90
15133;DHT22;7667;51.232;17.110;2023-02-13T11:18:31;6.40;99.90
15133;DHT22;7667;51.232;17.110;2023-02-13T11:21:09;6.30;99.90
15133;DHT22;7667;51.232;17.110;2023-02-13T11:23:44;6.20;99.90
15133;DHT22;7667;51.232;17.110;2023-02-13T11:26:26;6.30;99.90
15133;DHT22;7667;51.232;17.110;2023-02-13T11:34:42;6.20;99.90
15133;DHT22;7667;51.232;17.110;2023-02-13T11:39:41;6.20;99.90
15133;DHT22;7667;51.232;17.110;2023-02-13T11:42:35;6.40;99.90
15133;DHT22;7667;51.232;17.110;2023-02-13T11:47:41;6.30;99.90
15133;DHT22;7667;51.232;17.110;2023-02-13T11:50:31;6.30;99.90
15133;DHT22;7667;51.232;17.110;2023-02-13T11:53:06;6.30;99.90
15133;DHT22;7667;51.232;17.110;2023-02-13T11:55:40;6.00;99.90
15133;DHT22;7667;51.232;17.110;2023-02-13T12:00:42;5.80;99.90
15133;DHT22;7667;51.232;17.110;2023-02-13T12:06:15;5.70;99.90
15133;DHT22;7667;51.232;17.110;2023-02-13T12:08:46;5.60;99.90
15133;DHT22;7667;51.232;17.110;2023-02-13T12:11:20;5.60;99.90
15133;DHT22;7667;51.232;17.110;2023-02-13T12:13:49;5.60;99.90
15133;DHT22;7667;51.232;17.110;2023-02-13T12:27:38;5.70;99.90
15133;DHT22;7667;51.232;17.110;2023-02-13T12:30:42;5.70;99.90
15133;DHT22;7667;51.232;17.110;2023-02-13T12:47:30;5.70;99.90
15133;DHT22;7667;51.232;17.110;2023-02-13T13:09:55;6.00;99.90
15133;DHT22;7667;51.232;17.110;2023-02-13T13:12:36;6.00;99.90
15133;DHT22;7667;51.232;17.110;2023-02-13T13:15:28;6.00;99.90
15133;DHT22;7667;51.232;17.110;2023-02-13T13:18:04;6.10;99.90
15133;DHT22;7667;51.232;17.110;2023-02-13T13:23:37;6.10;99.90
15133;DHT22;7667;51.232;17.110;2023-02-13T13:28:55;6.10;99.90
15133;DHT22;7667;51.232;17.110;2023-02-13T13:31:26;6.10;99.90
15133;DHT22;7667;51.232;17.110;2023-02-13T13:33:59;6.00;99.90
15133;DHT22;7667;51.232;17.110;2023-02-13T13:39:32;6.00;99.90
15133;DHT22;7667;51.232;17.110;2023-02-13T13:51:02;6.00;99.90
15133;DHT22;7667;51.232;17.110;2023-02-13T13:53:32;6.00;99.90
15133;DHT22;7667;51.232;17.110;2023-02-13T13:56:02;6.00;99.90
15133;DHT22;7667;51.232;17.110;2023-02-13T13:58:45;6.00;99.90
15133;DHT22;7667;51.232;17.110;2023-02-13T14:04:01;6.00;99.90
15133;DHT22;7667;51.232;17.110;2023-02-13T14:11:53;6.00;99.90
15133;DHT22;7667;51.232;17.110;2023-02-13T14:17:01;6.00;99.90
15133;DHT22;7667;51.232;17.110;2023-02-13T14:24:57;6.00;99.90
15133;DHT22;7667;51.232;17.110;2023-02-13T14:27:37;6.00;99.90
15133;DHT22;7667;51.232;17.110;2023-02-13T14:32:56;6.00;99.90
15133;DHT22;7667;51.232;17.110;2023-02-13T14:35:30;6.00;99.90
15133;DHT22;7667;51.232;17.110;2023-02-13T14:38:02;6.00;99.90
15133;DHT22;7667;51.232;17.110;2023-02-13T14:40:47;5.90;99.90
15133;DHT22;7667;51.232;17.110;2023-02-13T14:46:31;5.90;99.90
15133;DHT22;7667;51.232;17.110;2023-02-13T14:49:09;5.90;99.90
15133;DHT22;7667;51.232;17.110;2023-02-13T14:51:45;5.90;99.90
15133;DHT22;7667;51.232;17.110;2023-02-13T14:54:28;5.90;99.90
15133;DHT22;7667;51.232;17.110;2023-02-13T15:00:33;5.90;99.90
15133;DHT22;7667;51.232;17.110;2023-02-13T15:03:47;5.80;99.90
15133;DHT22;7667;51.232;17.110;2023-02-13T15:06:27;5.70;99.90
15133;DHT22;7667;51.232;17.110;2023-02-13T15:09:02;5.70;99.90
15133;DHT22;7667;51.232;17.110;2023-02-13T15:11:39;5.60;99.90
15133;DHT22;7667;51.232;17.110;2023-02-13T15:14:34;5.60;99.90
15133;DHT22;7667;51.232;17.110;2023-02-13T15:17:25;5.70;99.90
15133;DHT22;7667;51.232;17.110;2023-02-13T15:20:22;5.70;99.90
15133;DHT22;7667;51.232;17.110;2023-02-13T15:22:51;5.80;99.90
15133;DHT22;7667;51.232;17.110;2023-02-13T15:25:37;5.80;99.90
15133;DHT22;7667;51.232;17.110;2023-02-13T15:28:20;5.80;99.90
15133;DHT22;7667;51.232;17.110;2023-02-13T15:31:01;5.80;99.90
15133;DHT22;7667;51.232;17.110;2023-02-13T15:33:47;5.80;99.90
15133;DHT22;7667;51.232;17.110;2023-02-13T15:36:21;5.70;99.90
15133;DHT22;7667;51.232;17.110;2023-02-13T15:39:02;5.70;99.90
15133;DHT22;7667;51.232;17.110;2023-02-13T15:41:42;5.70;99.90
15133;DHT22;7667;51.232;17.110;2023-02-13T15:44:19;5.70;99.90
15133;DHT22;7667;51.232;17.110;2023-02-13T15:46:50;5.70;99.90
15133;DHT22;7667;51.232;17.110;2023-02-13T15:49:22;5.60;99.90
15133;DHT22;7667;51.232;17.110;2023-02-13T15:52:02;5.60;99.90
15133;DHT22;7667;51.232;17.110;2023-02-13T15:54:34;5.60;99.90
15133;DHT22;7667;51.232;17.110;2023-02-13T15:57:05;5.70;99.90
15133;DHT22;7667;51.232;17.110;2023-02-13T15:59:36;5.70;99.90
15133;DHT22;7667;51.232;17.110;2023-02-13T16:02:13;5.60;99.90
15133;DHT22;7667;51.232;17.110;2023-02-13T16:04:51;5.60;99.90
15133;DHT22;7667;51.232;17.110;2023-02-13T16:07:19;5.60;99.90
15133;DHT22;7667;51.232;17.110;2023-02-13T16:09:47;5.60;99.90
15133;DHT22;7667;51.232;17.110;2023-02-13T16:14:59;5.50;99.90
15133;DHT22;7667;51.232;17.110;2023-02-13T16:17:36;5.50;99.90
15133;DHT22;7667;51.232;17.110;2023-02-13T16:30:35;5.40;99.90
15133;DHT22;7667;51.232;17.110;2023-02-13T16:35:47;5.60;99.90
15133;DHT22;7667;51.232;17.110;2023-02-13T16:38:38;5.60;99.90
15133;DHT22;7667;51.232;17.110;2023-02-13T16:43:46;5.60;99.90
15133;DHT22;7667;51.232;17.110;2023-02-13T16:51:34;5.50;99.90
15133;DHT22;7667;51.232;17.110;2023-02-13T16:59:27;5.40;99.90
15133;DHT22;7667;51.232;17.110;2023-02-13T17:07:39;5.20;99.90
15133;DHT22;7667;51.232;17.110;2023-02-13T17:13:14;5.20;99.90
15133;DHT22;7667;51.232;17.110;2023-02-13T17:15:46;5.20;99.90
15133;DHT22;7667;51.232;17.110;2023-02-13T17:18:14;5.20;99.90
15133;DHT22;7667;51.232;17.110;2023-02-13T17:20:43;5.30;99.90
15133;DHT22;7667;51.232;17.110;2023-02-13T17:23:20;5.20;99.90
15133;DHT22;7667;51.232;17.110;2023-02-13T17:25:50;5.20;99.90
15133;DHT22;7667;51.232;17.110;2023-02-13T17:28:22;5.10;99.90
15133;DHT22;7667;51.232;17.110;2023-02-13T17:30:56;5.10;99.90
15133;DHT22;7667;51.232;17.110;2023-02-13T17:33:27;5.10;99.90
15133;DHT22;7667;51.232;17.110;2023-02-13T17:35:56;5.10;99.90
15133;DHT22;7667;51.232;17.110;2023-02-13T17:38:24;5.10;99.90
15133;DHT22;7667;51.232;17.110;2023-02-13T17:40:51;5.20;99.90
15133;DHT22;7667;51.232;17.110;2023-02-13T17:43:19;5.20;99.90
15133;DHT22;7667;51.232;17.110;2023-02-13T17:45:47;5.20;99.90
15133;DHT22;7667;51.232;17.110;2023-02-13T17:48:16;5.10;99.90
15133;DHT22;7667;51.232;17.110;2023-02-13T17:50:49;5.10;99.90
15133;DHT22;7667;51.232;17.110;2023-02-13T17:53:25;5.10;99.90
15133;DHT22;7667;51.232;17.110;2023-02-13T17:55:56;5.20;99.90
15133;DHT22;7667;51.232;17.110;2023-02-13T17:58:24;5.20;99.90
15133;DHT22;7667;51.232;17.110;2023-02-13T18:00:51;5.20;99.90
15133;DHT22;7667;51.232;17.110;2023-02-13T18:03:19;5.10;99.90
15133;DHT22;7667;51.232;17.110;2023-02-13T18:05:48;5.10;99.90
15133;DHT22;7667;51.232;17.110;2023-02-13T18:08:16;5.00;99.90
15133;DHT22;7667;51.232;17.110;2023-02-13T18:10:43;5.00;99.90
15133;DHT22;7667;51.232;17.110;2023-02-13T18:13:11;4.90;99.90
15133;DHT22;7667;51.232;17.110;2023-02-13T18:15:40;4.90;99.90
15133;DHT22;7667;51.232;17.110;2023-02-13T18:18:10;4.90;99.90
15133;DHT22;7667;51.232;17.110;2023-02-13T18:20:42;4.90;99.90
15133;DHT22;7667;51.232;17.110;2023-02-13T18:23:10;4.90;99.90
15133;DHT22;7667;51.232;17.110;2023-02-13T18:25:40;4.90;99.90
15133;DHT22;7667;51.232;17.110;2023-02-13T18:28:07;4.90;99.90
15133;DHT22;7667;51.232;17.110;2023-02-13T18:30:35;5.00;99.90
15133;DHT22;7667;51.232;17.110;2023-02-13T18:33:02;5.00;99.90
15133;DHT22;7667;51.232;17.110;2023-02-13T18:35:31;5.10;99.90
15133;DHT22;7667;51.232;17.110;2023-02-13T18:38:00;5.20;99.90
15133;DHT22;7667;51.232;17.110;2023-02-13T18:40:28;5.10;99.90
15133;DHT22;7667;51.232;17.110;2023-02-13T18:42:55;5.10;99.90
15133;DHT22;7667;51.232;17.110;2023-02-13T18:45:23;5.10;99.90
15133;DHT22;7667;51.232;17.110;2023-02-13T18:47:50;5.20;99.90
15133;DHT22;7667;51.232;17.110;2023-02-13T18:50:18;5.10;99.90
15133;DHT22;7667;51.232;17.110;2023-02-13T18:52:46;5.20;99.90
15133;DHT22;7667;51.232;17.110;2023-02-13T18:55:14;5.20;99.90
15133;DHT22;7667;51.232;17.110;2023-02-13T18:57:41;5.10;99.90
15133;DHT22;7667;51.232;17.110;2023-02-13T19:00:10;5.10;99.90
15133;DHT22;7667;51.232;17.110;2023-02-13T19:02:40;5.10;99.90
15133;DHT22;7667;51.232;17.110;2023-02-13T19:05:07;5.10;99.90
15133;DHT22;7667;51.232;17.110;2023-02-13T19:07:35;5.20;99.90
15133;DHT22;7667;51.232;17.110;2023-02-13T19:10:02;5.20;99.90
15133;DHT22;7667;51.232;17.110;2023-02-13T19:12:30;5.20;99.90
15133;DHT22;7667;51.232;17.110;2023-02-13T19:14:58;5.30;99.90
15133;DHT22;7667;51.232;17.110;2023-02-13T19:17:25;5.30;99.90
15133;DHT22;7667;51.232;17.110;2023-02-13T19:19:52;5.30;99.90
15133;DHT22;7667;51.232;17.110;2023-02-13T19:22:21;5.30;99.90
15133;DHT22;7667;51.232;17.110;2023-02-13T19:24:49;5.30;99.90
15133;DHT22;7667;51.232;17.110;2023-02-13T19:27:16;5.40;99.90
15133;DHT22;7667;51.232;17.110;2023-02-13T19:29:45;5.40;99.90
15133;DHT22;7667;51.232;17.110;2023-02-13T19:32:13;5.40;99.90
15133;DHT22;7667;51.232;17.110;2023-02-13T19:34:40;5.40;99.90
15133;DHT22;7667;51.232;17.110;2023-02-13T19:37:08;5.40;99.90
15133;DHT22;7667;51.232;17.110;2023-02-13T19:39:35;5.40;99.90
15133;DHT22;7667;51.232;17.110;2023-02-13T19:42:03;5.40;99.90
15133;DHT22;7667;51.232;17.110;2023-02-13T19:44:30;5.50;99.90
15133;DHT22;7667;51.232;17.110;2023-02-13T19:46:58;5.40;99.90
15133;DHT22;7667;51.232;17.110;2023-02-13T19:49:25;5.50;99.90
15133;DHT22;7667;51.232;17.110;2023-02-13T19:51:53;5.50;99.90
15133;DHT22;7667;51.232;17.110;2023-02-13T19:54:20;5.50;99.90
15133;DHT22;7667;51.232;17.110;2023-02-13T19:56:48;5.40;99.90
15133;DHT22;7667;51.232;17.110;2023-02-13T19:59:15;5.50;99.90
15133;DHT22;7667;51.232;17.110;2023-02-13T20:01:43;5.50;99.90
15133;DHT22;7667;51.232;17.110;2023-02-13T20:04:11;5.50;99.90